Time;durP1;ratioP1;P1;durP2;ratioP2;P2;SDS_P1;SDS_P2;PMS_P1;PMS_P2;Temp;Humidity;BMP_temperature;BMP_pressure;BME280_temperature;BME280_humidity;BME280_pressure;Samples;Min_cycle;Max_cycle;Signal;HPM_P1;HPM_P2
2021/04/26 00:00:26;;;;;;;2.85;1.50;;;;;;;8.65;61.25;97719.04;1745872;82;21670;-69
2021/04/26 00:02:59;;;;;;;;;;;;;;;8.62;62.40;97722.73;1748481;82;21135;-68
2021/04/26 00:05:28;;;;;;;2.27;1.52;;;;;;;8.59;60.95;97719.12;1745911;82;20142;-68
2021/04/26 00:07:58;;;;;;;3.02;1.60;;;;;;;8.57;62.39;97722.31;1745847;82;21609;-69
2021/04/26 00:10:27;;;;;;;3.50;1.47;;;;;;;8.56;62.26;97727.14;1746085;82;21175;-68
2021/04/26 00:12:55;;;;;;;2.33;1.57;;;;;;;8.52;61.93;97733.06;1745881;82;21603;-65
2021/04/26 00:15:28;;;;;;;3.17;1.80;;;;;;;8.51;60.66;97728.86;1750172;80;21195;-66
2021/04/26 00:17:57;;;;;;;2.10;1.25;;;;;;;8.50;60.49;97727.69;1746030;82;21671;-66
2021/04/26 00:20:29;;;;;;;2.62;1.60;;;;;;;8.46;65.53;97743.15;1745912;82;21148;-65
2021/04/26 00:22:59;;;;;;;3.58;1.55;;;;;;;8.43;65.98;97739.54;1746061;81;21187;-66
2021/04/26 00:25:29;;;;;;;3.75;2.08;;;;;;;8.41;63.42;97736.25;1745766;82;21190;-66
2021/04/26 00:27:58;;;;;;;2.60;1.65;;;;;;;8.39;65.22;97739.47;1746001;82;21139;-65
2021/04/26 00:30:27;;;;;;;7.87;1.60;;;;;;;8.39;66.89;97742.88;1745789;82;22310;-68
2021/04/26 00:32:55;;;;;;;3.45;2.00;;;;;;;8.37;65.84;97737.47;1745948;81;21175;-68
2021/04/26 00:35:24;;;;;;;3.02;1.32;;;;;;;8.34;65.08;97736.45;1745817;81;21203;-69
2021/04/26 00:37:53;;;;;;;2.47;1.40;;;;;;;8.28;68.02;97740.38;1745804;82;21584;-65
2021/04/26 00:40:23;;;;;;;2.42;1.45;;;;;;;8.32;67.03;97743.55;1745888;82;21722;-68
2021/04/26 00:42:52;;;;;;;2.77;1.40;;;;;;;8.29;64.96;97739.91;1745997;82;21174;-65
2021/04/26 00:45:24;;;;;;;5.70;1.90;;;;;;;8.28;65.45;97743.44;1745967;82;21604;-67
2021/04/26 00:47:54;;;;;;;4.05;1.62;;;;;;;8.19;67.21;97743.76;1746019;82;21215;-71
2021/04/26 00:50:29;;;;;;;3.83;1.98;;;;;;;8.21;64.63;97741.05;1745812;82;21167;-71
2021/04/26 00:53:00;;;;;;;1.67;1.30;;;;;;;8.20;65.42;97753.16;1745797;82;21603;-71
2021/04/26 00:55:32;;;;;;;2.83;1.90;;;;;;;8.21;64.14;97751.40;1745736;81;21166;-71
2021/04/26 00:58:02;;;;;;;2.33;1.22;;;;;;;8.13;66.44;97758.53;1745668;82;21191;-71
2021/04/26 01:00:32;;;;;;;2.67;1.70;;;;;;;8.13;64.14;97750.27;1745965;82;21830;-71
2021/04/26 01:03:00;;;;;;;2.60;1.22;;;;;;;8.13;63.06;97751.56;1745963;82;21136;-71
2021/04/26 01:05:33;;;;;;;1.50;1.20;;;;;;;8.13;63.09;97755.94;1746139;82;21184;-71
2021/04/26 01:08:01;;;;;;;2.90;1.50;;;;;;;8.10;62.03;97760.88;1745901;82;21171;-67
2021/04/26 01:10:35;;;;;;;3.83;1.42;;;;;;;8.05;62.43;97759.16;1744991;81;21180;-71
2021/04/26 01:15:51;;;;;;;2.85;1.90;;;;;;;8.03;62.92;97761.08;1824060;77;22771;-68
2021/04/26 01:18:48;;;;;;;2.22;1.10;;;;;;;7.97;62.32;97762.08;1760870;81;21168;-70
2021/04/26 01:21:48;;;;;;;1.22;1.02;;;;;;;7.84;65.91;97762.30;1710668;82;21171;-69
2021/04/26 01:25:00;;;;;;;2.22;0.98;;;;;;;7.83;63.08;97766.30;1758855;81;21155;-70
2021/04/26 01:28:01;;;;;;;3.05;1.62;;;;;;;7.77;62.17;97768.95;1760509;81;21159;-69
2021/04/26 01:31:05;;;;;;;2.15;1.12;;;;;;;7.72;62.07;97764.62;1733013;81;21203;-70
2021/04/26 01:33:51;;;;;;;2.00;0.85;;;;;;;7.63;60.90;97763.63;1770068;81;21628;-70
2021/04/26 01:36:24;;;;;;;2.80;1.52;;;;;;;7.54;61.22;97767.02;1742059;81;21587;-71
2021/04/26 01:38:57;;;;;;;2.53;1.73;;;;;;;7.46;60.66;97768.13;1760554;81;21233;-69
2021/04/26 01:41:29;;;;;;;4.00;1.80;;;;;;;7.38;62.32;97764.53;1770102;81;21125;-69
2021/04/26 01:43:58;;;;;;;2.00;1.42;;;;;;;7.31;64.39;97765.52;1741928;81;21199;-72
2021/04/26 01:46:27;;;;;;;2.87;2.00;;;;;;;7.25;63.37;97771.65;1770214;81;21147;-71
2021/04/26 01:48:57;;;;;;;3.22;1.90;;;;;;;7.16;64.73;97769.34;1742109;81;21612;-71
2021/04/26 01:51:28;;;;;;;3.50;1.80;;;;;;;7.09;64.27;97763.88;1770223;81;21564;-71
2021/04/26 01:53:58;;;;;;;2.80;1.45;;;;;;;7.07;63.37;97761.91;1759775;81;21202;-70
2021/04/26 01:56:28;;;;;;;3.90;1.85;;;;;;;7.04;63.99;97766.50;1770060;81;21737;-65
2021/04/26 01:58:58;;;;;;;1.92;1.32;;;;;;;7.01;62.08;97761.09;1760639;81;21159;-66
2021/04/26 02:01:29;;;;;;;3.08;1.80;;;;;;;6.96;63.94;97771.00;1715408;82;21179;-66
2021/04/26 02:04:02;;;;;;;4.83;1.85;;;;;;;6.92;64.90;97772.66;1769988;81;21164;-70
2021/04/26 02:06:38;;;;;;;2.58;2.12;;;;;;;6.83;65.38;97767.77;1758419;81;21600;-69
2021/04/26 02:09:20;;;;;;;4.22;1.60;;;;;;;6.78;66.37;97771.64;1741982;82;21230;-70
2021/04/26 02:11:51;;;;;;;2.72;1.67;;;;;;;6.79;64.26;97771.53;1769789;81;21136;-71
2021/04/26 02:14:21;;;;;;;3.47;2.05;;;;;;;6.76;62.43;97767.92;1769770;81;21544;-71
2021/04/26 02:16:49;;;;;;;2.22;1.20;;;;;;;6.73;62.71;97766.06;1760320;81;21167;-70
2021/04/26 02:19:18;;;;;;;2.92;1.42;;;;;;;6.68;62.12;97775.45;1770233;81;21151;-65
2021/04/26 02:21:46;;;;;;;2.30;1.20;;;;;;;6.60;62.85;97775.24;1760353;81;21230;-68
2021/04/26 02:24:16;;;;;;;1.80;1.20;;;;;;;6.52;63.62;97773.28;1757746;81;21261;-67
2021/04/26 02:26:44;;;;;;;1.35;1.22;;;;;;;6.43;62.09;97772.70;1769619;81;21584;-65
2021/04/26 02:29:12;;;;;;;4.72;1.60;;;;;;;6.35;61.60;97770.38;1769537;81;21156;-66
2021/04/26 02:31:44;;;;;;;2.27;1.05;;;;;;;6.29;61.76;97774.74;1769488;81;21143;-65
2021/04/26 02:34:33;;;;;;;3.27;1.40;;;;;;;6.20;62.89;97773.70;1757872;81;21168;-65
2021/04/26 02:37:07;;;;;;;2.58;1.27;;;;;;;6.12;61.63;97772.19;1740846;81;21290;-65
2021/04/26 02:39:42;;;;;;;1.67;1.10;;;;;;;6.05;62.43;97771.03;1768791;81;21591;-65
2021/04/26 02:42:12;;;;;;;2.10;1.30;;;;;;;5.97;62.12;97775.48;1769776;81;21163;-65
2021/04/26 02:44:44;;;;;;;3.35;1.27;;;;;;;5.92;62.24;97774.19;1758010;81;21679;-65
2021/04/26 02:47:22;;;;;;;1.65;1.27;;;;;;;5.86;62.30;97772.07;1769698;81;21170;-66
2021/04/26 02:49:54;;;;;;;1.67;1.25;;;;;;;5.80;63.25;97769.98;1755931;81;21617;-65
2021/04/26 02:52:23;;;;;;;6.53;1.87;;;;;;;5.74;65.57;97778.98;1769732;81;21218;-65
2021/04/26 02:54:52;;;;;;;1.27;1.07;;;;;;;5.69;62.88;97775.47;1769577;81;21187;-65
2021/04/26 02:57:23;;;;;;;2.05;1.55;;;;;;;5.64;64.16;97777.56;1758009;81;21163;-66
2021/04/26 02:59:53;;;;;;;2.20;1.72;;;;;;;5.58;66.32;97777.22;1741365;81;21160;-64
2021/04/26 03:02:22;;;;;;;1.62;1.10;;;;;;;5.53;65.51;97778.84;1757848;81;21597;-64
2021/04/26 03:04:55;;;;;;;1.35;1.25;;;;;;;5.48;65.09;97780.14;1767167;81;21128;-65
2021/04/26 03:07:25;;;;;;;1.30;1.15;;;;;;;5.44;64.84;97771.02;1769451;81;21163;-68
2021/04/26 03:10:07;;;;;;;2.12;1.47;;;;;;;5.42;64.06;97770.29;1769579;81;21178;-68
2021/04/26 03:12:42;;;;;;;3.25;1.17;;;;;;;5.38;65.35;97777.42;1757921;81;21199;-69
2021/04/26 03:15:14;;;;;;;2.33;1.75;;;;;;;5.34;63.33;97777.30;1768743;81;21211;-68
2021/04/26 03:17:44;;;;;;;2.62;1.77;;;;;;;5.31;65.06;97784.44;1741475;81;21179;-71
2021/04/26 03:20:35;;;;;;;2.27;1.80;;;;;;;5.27;64.19;97787.71;1758111;81;21164;-71
2021/04/26 03:23:05;;;;;;;2.37;1.60;;;;;;;5.22;65.43;97786.76;1768280;81;21143;-71
2021/04/26 03:25:34;;;;;;;2.83;2.25;;;;;;;5.19;65.64;97786.17;1758007;81;21199;-71
2021/04/26 03:28:24;;;;;;;2.45;1.70;;;;;;;5.15;64.49;97793.30;1769528;81;21154;-72
2021/04/26 03:30:52;;;;;;;2.10;1.55;;;;;;;5.13;63.92;97793.89;1765783;81;21205;-71
2021/04/26 03:33:35;;;;;;;2.52;1.77;;;;;;;5.11;65.01;97800.07;1701732;82;21315;-68
2021/04/26 03:36:25;;;;;;;4.08;1.95;;;;;;;5.08;66.73;97798.55;1753544;82;21158;-67
2021/04/26 03:38:55;;;;;;;3.95;2.30;;;;;;;5.08;66.71;97802.88;1704276;84;21653;-67
2021/04/26 03:41:24;;;;;;;3.58;2.02;;;;;;;5.06;65.34;97804.27;1704370;84;21181;-70
2021/04/26 03:43:52;;;;;;;3.27;1.65;;;;;;;5.04;66.84;97800.17;1678858;84;21205;-71
2021/04/26 03:46:23;;;;;;;2.67;1.98;;;;;;;5.02;65.86;97798.98;1704634;84;21099;-71
2021/04/26 03:49:09;;;;;;;2.92;1.65;;;;;;;5.03;68.71;97803.67;1704528;84;21222;-70
2021/04/26 03:51:39;;;;;;;2.35;1.90;;;;;;;4.99;66.57;97806.94;1703571;84;21165;-71
2021/04/26 03:54:13;;;;;;;3.30;2.00;;;;;;;5.00;66.18;97806.47;1704218;84;21185;-70
2021/04/26 03:56:43;;;;;;;3.95;2.85;;;;;;;5.01;66.05;97808.95;1704327;84;21602;-70
2021/04/26 03:59:14;;;;;;;2.37;1.65;;;;;;;5.01;69.23;97815.38;1701803;84;21579;-67
2021/04/26 04:01:44;;;;;;;4.75;2.30;;;;;;;5.00;70.36;97819.34;1704251;84;21190;-67
2021/04/26 04:04:13;;;;;;;6.33;2.22;;;;;;;5.02;70.14;97831.16;1704422;84;21222;-67
2021/04/26 04:07:07;;;;;;;4.08;2.65;;;;;;;5.04;69.28;97828.48;1653371;86;21301;-67
2021/04/26 04:09:54;;;;;;;3.10;2.42;;;;;;;5.04;69.92;97837.02;1623243;87;21237;-66
2021/04/26 04:12:24;;;;;;;2.67;1.80;;;;;;;5.08;67.98;97840.19;1594930;88;21633;-64
2021/04/26 04:14:53;;;;;;;3.17;1.92;;;;;;;5.11;67.93;97835.64;1622143;87;21212;-67
2021/04/26 04:17:22;;;;;;;3.30;2.00;;;;;;;5.15;68.83;97847.36;1623607;87;21240;-66
2021/04/26 04:19:51;;;;;;;4.58;2.67;;;;;;;5.17;66.94;97845.51;1596426;90;21203;-67
2021/04/26 04:22:19;;;;;;;3.22;1.75;;;;;;;5.18;67.57;97852.28;1622286;87;21258;-67
2021/04/26 04:24:49;;;;;;;5.30;2.12;;;;;;;5.23;68.40;97845.51;1622448;87;21186;-67
2021/04/26 04:27:18;;;;;;;3.30;2.25;;;;;;;5.26;68.71;97851.25;1635516;87;21339;-68
2021/04/26 04:29:46;;;;;;;3.15;1.75;;;;;;;5.31;65.72;97850.09;1605896;87;21175;-71
2021/04/26 04:32:16;;;;;;;1.57;1.15;;;;;;;5.35;65.74;97847.65;1607658;87;21183;-72
2021/04/26 04:34:56;;;;;;;3.62;2.15;;;;;;;5.35;68.73;97851.52;1619469;88;21311;-73
2021/04/26 04:37:42;;;;;;;6.90;2.50;;;;;;;5.38;69.55;97853.85;1630279;86;21165;-71
2021/04/26 04:40:29;;;;;;;4.53;2.58;;;;;;;5.40;68.35;97852.83;1610524;88;21226;-73
2021/04/26 04:42:59;;;;;;;3.02;1.82;;;;;;;5.43;69.03;97876.23;1642662;86;21166;-72
2021/04/26 04:45:29;;;;;;;3.02;2.47;;;;;;;5.44;68.97;97856.82;1608425;88;21204;-73
2021/04/26 04:48:15;;;;;;;3.20;1.45;;;;;;;5.46;68.98;97852.83;1625947;87;21168;-72
2021/04/26 04:50:45;;;;;;;4.55;2.40;;;;;;;5.52;68.18;97855.79;1620342;87;21206;-74
2021/04/26 04:53:13;;;;;;;3.60;2.02;;;;;;;5.55;68.04;97867.61;1658341;85;21196;-72
2021/04/26 04:55:41;;;;;;;2.95;1.57;;;;;;;5.60;65.99;97869.38;1671121;85;21228;-72
2021/04/26 04:58:10;;;;;;;4.08;1.47;;;;;;;5.66;65.52;97871.48;1622808;88;21631;-73
2021/04/26 05:00:39;;;;;;;3.10;1.90;;;;;;;5.70;66.19;97881.45;1650519;86;21274;-72
2021/04/26 05:03:26;;;;;;;3.75;2.17;;;;;;;5.76;64.67;97880.16;1649145;87;21599;-73
2021/04/26 05:06:12;;;;;;;3.15;1.60;;;;;;;5.82;64.56;97884.05;1647077;87;21568;-72
2021/04/26 05:08:59;;;;;;;3.17;1.62;;;;;;;5.88;64.37;97884.89;1615937;89;21195;-71
2021/04/26 05:11:28;;;;;;;5.47;1.70;;;;;;;5.94;63.94;97893.01;1609784;87;21223;-73
2021/04/26 05:14:07;;;;;;;2.45;1.75;;;;;;;5.98;64.62;97894.88;1593751;90;21162;-74
2021/04/26 05:16:35;;;;;;;2.42;1.27;;;;;;;6.02;62.54;97889.38;1643390;87;21671;-71
2021/04/26 05:19:08;;;;;;;2.60;1.60;;;;;;;6.08;61.70;97895.81;1626165;88;21607;-67
2021/04/26 05:21:37;;;;;;;2.40;1.55;;;;;;;6.11;61.05;97893.82;1643517;87;21171;-73
2021/04/26 05:24:06;;;;;;;1.67;1.27;;;;;;;6.15;60.77;97890.54;1615689;89;21730;-73
2021/04/26 05:26:35;;;;;;;2.17;1.47;;;;;;;6.21;60.96;97897.83;1643294;87;21207;-72
2021/04/26 05:29:12;;;;;;;3.90;1.50;;;;;;;6.29;60.27;97903.69;1615714;89;21262;-75
2021/04/26 05:31:40;;;;;;;2.62;1.40;;;;;;;6.35;60.10;97914.80;1643288;87;21588;-74
2021/04/26 05:34:08;;;;;;;2.42;1.40;;;;;;;6.41;59.35;97914.35;1615247;88;21199;-72
2021/04/26 05:36:38;;;;;;;3.22;1.45;;;;;;;6.48;61.72;97906.02;1636290;87;21239;-71
2021/04/26 05:39:07;;;;;;;3.45;1.40;;;;;;;6.94;67.04;97916.15;1625872;88;21206;-74
2021/04/26 05:41:36;;;;;;;1.02;0.93;;;;;;;7.22;60.83;97914.78;1643008;87;21191;-72
2021/04/26 05:47:09;;;;;;;8.63;5.17;;;;;;;7.43;56.81;97936.28;1763735;80;21165;-74
2021/04/26 05:49:37;;;;;;;10.18;5.28;;;;;;;7.40;55.33;97926.67;1754551;80;21166;-73
2021/04/26 05:52:05;;;;;;;11.75;6.55;;;;;;;7.33;54.77;97941.03;1749529;81;21192;-74
2021/04/26 05:54:33;;;;;;;29.45;13.68;;;;;;;7.36;54.73;97935.61;1757229;81;21170;-75
2021/04/26 05:57:01;;;;;;;4.17;2.42;;;;;;;7.34;53.85;97936.22;1749197;81;21572;-72
2021/04/26 05:59:29;;;;;;;3.27;1.75;;;;;;;7.34;53.36;97962.88;1756936;81;21642;-72
2021/04/26 06:01:58;;;;;;;1.80;1.22;;;;;;;7.32;53.50;97945.38;1754663;82;21206;-72
2021/04/26 06:04:26;;;;;;;2.80;1.17;;;;;;;7.24;52.62;97947.75;1749468;81;21167;-72
2021/04/26 06:06:54;;;;;;;1.70;0.95;;;;;;;7.32;53.26;97953.59;1755452;80;21156;-72
2021/04/26 06:09:22;;;;;;;1.70;0.90;;;;;;;7.34;52.63;97947.84;1753883;81;21161;-71
2021/04/26 06:11:50;;;;;;;2.05;0.90;;;;;;;7.38;52.87;97949.24;1741406;82;21207;-72
2021/04/26 06:14:18;;;;;;;1.57;0.88;;;;;;;7.41;52.21;97949.81;1759835;81;21148;-66
2021/04/26 06:16:48;;;;;;;1.50;0.90;;;;;;;7.44;52.12;97947.44;1771077;81;21140;-66
2021/04/26 06:19:15;;;;;;;2.08;1.45;;;;;;;7.47;51.86;97954.97;1770580;81;21149;-68
2021/04/26 06:21:44;;;;;;;0.93;0.82;;;;;;;7.51;51.64;97958.92;1770605;80;21175;-66
2021/04/26 06:24:11;;;;;;;1.32;0.93;;;;;;;7.55;51.03;97956.44;1770794;80;21177;-67
2021/04/26 06:26:40;;;;;;;1.30;1.07;;;;;;;7.61;50.98;97955.95;1770879;80;21145;-67
2021/04/26 06:29:08;;;;;;;1.35;1.00;;;;;;;7.67;50.42;97956.73;1770892;80;21125;-65
2021/04/26 06:31:37;;;;;;;1.67;1.10;;;;;;;7.71;50.33;97963.30;1770735;81;21156;-66
2021/04/26 06:34:05;;;;;;;0.98;0.72;;;;;;;7.78;49.68;97964.44;1770734;81;21573;-67
2021/04/26 06:36:34;;;;;;;1.47;0.82;;;;;;;7.81;49.63;97960.80;1770466;80;21188;-66
2021/04/26 06:39:03;;;;;;;1.85;0.80;;;;;;;7.88;49.58;97964.05;1770880;80;21559;-67
2021/04/26 06:41:31;;;;;;;2.70;1.35;;;;;;;7.92;48.39;97965.44;1770562;80;21553;-67
2021/04/26 06:44:01;;;;;;;1.87;0.98;;;;;;;8.01;49.05;97972.92;1770610;81;21216;-66
2021/04/26 06:46:33;;;;;;;1.75;0.70;;;;;;;8.04;47.97;97973.48;1772021;80;21593;-67
2021/04/26 06:49:02;;;;;;;1.07;0.80;;;;;;;8.09;48.35;97973.11;1772572;80;21186;-68
2021/04/26 06:51:30;;;;;;;3.08;1.32;;;;;;;8.19;48.16;97967.98;1772764;80;21746;-70
2021/04/26 06:53:58;;;;;;;1.22;1.07;;;;;;;8.27;48.58;97978.52;1772646;80;21739;-67
2021/04/26 06:56:26;;;;;;;1.60;0.85;;;;;;;8.30;47.24;97988.63;1772891;81;21369;-68
2021/04/26 06:58:54;;;;;;;3.75;1.67;;;;;;;8.39;48.42;97985.28;1772630;81;21172;-68
2021/04/26 07:01:22;;;;;;;5.37;1.25;;;;;;;8.37;47.62;97972.93;1772811;80;21287;-68
2021/04/26 07:03:50;;;;;;;2.42;1.20;;;;;;;8.21;46.39;97979.03;1772813;81;21600;-68
2021/04/26 07:06:22;;;;;;;2.83;1.25;;;;;;;8.41;47.54;97981.61;1772920;81;21314;-67
2021/04/26 07:08:49;;;;;;;1.27;1.00;;;;;;;8.51;46.33;97970.02;1772884;80;21635;-66
2021/04/26 07:11:17;;;;;;;2.10;0.90;;;;;;;8.57;46.41;97981.14;1772510;80;21160;-66
2021/04/26 07:13:46;;;;;;;3.05;1.40;;;;;;;8.66;46.42;97970.48;1772917;80;21766;-65
2021/04/26 07:16:14;;;;;;;2.20;1.20;;;;;;;8.69;45.98;97973.63;1772869;81;21294;-67
2021/04/26 07:18:44;;;;;;;36.95;16.90;;;;;;;8.80;45.54;97970.94;1772912;80;21291;-66
2021/04/26 07:21:14;;;;;;;4.15;2.70;;;;;;;8.81;43.37;97962.23;1772524;80;21632;-66
2021/04/26 07:23:42;;;;;;;2.22;1.27;;;;;;;8.83;43.33;97970.67;1772598;81;21286;-66
2021/04/26 07:26:12;;;;;;;1.98;1.12;;;;;;;8.97;40.57;97969.03;1772817;81;21136;-66
2021/04/26 07:28:40;;;;;;;3.20;1.62;;;;;;;9.07;43.70;97963.86;1772632;81;21192;-66
2021/04/26 07:31:08;;;;;;;1.98;0.88;;;;;;;9.15;42.06;97965.78;1743162;81;21140;-67
2021/04/26 07:33:36;;;;;;;1.10;0.68;;;;;;;9.28;42.81;97970.25;1772838;80;21258;-67
2021/04/26 07:36:26;;;;;;;0.68;0.68;;;;;;;9.36;41.90;97972.52;1772766;81;21160;-67
2021/04/26 07:38:54;;;;;;;0.53;0.47;;;;;;;9.50;42.71;97979.06;1707425;84;21195;-65
2021/04/26 07:41:22;;;;;;;2.80;1.65;;;;;;;9.57;42.54;97971.11;1707634;83;21207;-65
2021/04/26 07:43:50;;;;;;;2.30;0.88;;;;;;;9.67;40.71;97965.43;1707369;83;21782;-65
2021/04/26 07:46:19;;;;;;;0.68;0.53;;;;;;;9.68;41.60;97974.03;1709592;83;21744;-66
2021/04/26 07:48:47;;;;;;;1.85;0.90;;;;;;;9.73;41.99;97976.54;1705999;83;21170;-67
2021/04/26 07:51:15;;;;;;;0.78;0.75;;;;;;;9.79;40.99;97977.78;1707569;84;21225;-67
2021/04/26 07:53:43;;;;;;;1.75;0.98;;;;;;;9.85;40.10;97983.70;1707702;83;21328;-67
2021/04/26 07:56:12;;;;;;;1.85;0.90;;;;;;;9.74;37.31;97982.55;1707775;83;21328;-69
2021/04/26 07:58:40;;;;;;;0.62;0.53;;;;;;;9.91;40.28;97979.28;1707698;83;21296;-66
2021/04/26 08:01:08;;;;;;;0.95;0.65;;;;;;;10.03;40.72;97982.54;1707565;83;21748;-68
2021/04/26 08:03:36;;;;;;;0.80;0.57;;;;;;;10.14;39.20;97985.80;1707681;83;21189;-67
2021/04/26 08:06:31;;;;;;;1.30;0.90;;;;;;;10.17;36.97;97982.95;1707579;83;21162;-71
2021/04/26 08:08:59;;;;;;;3.95;0.65;;;;;;;10.31;36.87;97985.60;1677655;85;21172;-65
2021/04/26 08:11:27;;;;;;;0.42;0.40;;;;;;;10.48;37.90;97988.75;1677726;85;21168;-65
2021/04/26 08:13:55;;;;;;;2.17;0.50;;;;;;;10.51;39.39;97987.16;1677917;85;21251;-66
2021/04/26 08:16:24;;;;;;;28.40;13.38;;;;;;;10.39;35.77;97986.51;1677963;85;21156;-67
2021/04/26 08:18:54;;;;;;;28.52;11.73;;;;;;;10.23;36.94;97988.08;1677792;85;21184;-67
2021/04/26 08:21:23;;;;;;;9.85;4.47;;;;;;;10.32;36.70;97977.66;1677870;85;21220;-66
2021/04/26 08:23:56;;;;;;;4.33;2.15;;;;;;;10.40;36.19;97986.86;1677891;85;21201;-66
2021/04/26 08:26:34;;;;;;;1.60;0.90;;;;;;;10.56;35.84;97986.27;1638734;86;21209;-68
2021/04/26 08:29:02;;;;;;;1.17;0.98;;;;;;;10.45;35.44;97984.67;1632437;86;21147;-65
2021/04/26 08:31:31;;;;;;;1.17;0.60;;;;;;;10.52;35.90;97982.31;1632398;86;21199;-66
2021/04/26 08:33:59;;;;;;;1.75;0.78;;;;;;;10.58;34.75;97978.34;1632668;86;21151;-66
2021/04/26 08:36:29;;;;;;;0.78;0.53;;;;;;;10.66;34.19;97974.05;1639302;86;21147;-67
2021/04/26 08:38:57;;;;;;;0.80;0.50;;;;;;;10.70;33.03;97978.00;1632561;86;21222;-66
2021/04/26 08:41:26;;;;;;;1.75;0.78;;;;;;;10.67;34.60;97964.48;1632022;86;21178;-66
2021/04/26 08:43:54;;;;;;;0.80;0.50;;;;;;;10.50;31.45;97964.77;1632624;86;21233;-65
2021/04/26 08:46:24;;;;;;;2.02;0.47;;;;;;;10.57;33.29;97958.05;1632570;86;21182;-65
2021/04/26 08:48:52;;;;;;;0.47;0.37;;;;;;;10.65;32.98;97965.94;1632632;86;21155;-66
2021/04/26 08:51:20;;;;;;;0.37;0.25;;;;;;;10.74;33.51;97974.63;1634246;86;21222;-65
2021/04/26 08:53:48;;;;;;;1.52;0.40;;;;;;;10.82;31.17;97973.44;1632522;86;21607;-65
2021/04/26 08:56:18;;;;;;;0.40;0.40;;;;;;;10.85;31.05;97985.69;1632743;86;21206;-66
2021/04/26 08:58:46;;;;;;;1.70;0.60;;;;;;;10.88;29.96;97988.47;1632575;86;21186;-65
2021/04/26 09:01:14;;;;;;;1.55;0.55;;;;;;;10.70;27.90;97990.98;1632474;86;21159;-65
2021/04/26 09:03:42;;;;;;;0.78;0.47;;;;;;;10.68;29.55;97983.83;1632495;86;21814;-65
2021/04/26 09:06:10;;;;;;;0.40;0.40;;;;;;;10.73;28.89;97969.95;1632879;86;21183;-65
2021/04/26 09:08:48;;;;;;;3.20;0.85;;;;;;;10.57;27.79;97974.92;1632700;86;21155;-65
2021/04/26 09:11:18;;;;;;;1.07;0.55;;;;;;;10.59;29.21;97976.89;1632646;86;21222;-65
2021/04/26 09:13:47;;;;;;;0.53;0.47;;;;;;;10.80;31.75;97968.88;1632681;86;21183;-65
2021/04/26 09:16:22;;;;;;;0.82;0.57;;;;;;;11.04;29.73;97972.25;1632731;86;21814;-65
2021/04/26 09:19:01;;;;;;;0.78;0.55;;;;;;;11.31;32.52;97978.72;1632674;86;21243;-65
2021/04/26 09:21:44;;;;;;;0.80;0.40;;;;;;;11.47;30.60;97980.67;1632622;86;21212;-65
2021/04/26 09:24:19;;;;;;;1.15;0.75;;;;;;;11.69;29.69;97972.42;1632225;86;21251;-65
2021/04/26 09:26:51;;;;;;;0.42;0.40;;;;;;;11.96;30.53;97965.03;1639101;86;21197;-66
2021/04/26 09:29:23;;;;;;;0.68;0.40;;;;;;;12.28;31.02;97962.66;1638946;86;21246;-65
2021/04/26 09:32:20;;;;;;;1.75;0.45;;;;;;;12.57;31.10;97954.02;1638972;86;21226;-66
2021/04/26 09:34:53;;;;;;;0.97;0.47;;;;;;;12.90;28.59;97954.18;1633602;86;21175;-65
2021/04/26 09:37:25;;;;;;;1.85;0.50;;;;;;;13.25;28.24;97954.81;1632255;88;22062;-65
2021/04/26 09:40:14;;;;;;;1.37;0.40;;;;;;;13.57;32.37;97954.06;1639076;86;21190;-66
2021/04/26 09:42:47;;;;;;;0.45;0.37;;;;;;;13.88;29.49;97956.84;1636462;86;21647;-66
2021/04/26 09:45:33;;;;;;;1.37;0.33;;;;;;;13.91;27.62;97951.78;1639500;86;21191;-66
2021/04/26 09:48:18;;;;;;;1.60;0.80;;;;;;;14.23;24.05;97945.23;1635089;86;21198;-66
2021/04/26 09:50:57;;;;;;;0.95;0.60;;;;;;;14.68;30.13;97959.02;1639526;86;21177;-67
2021/04/26 09:53:30;;;;;;;0.82;0.60;;;;;;;15.02;23.95;97943.84;1639308;86;21753;-68
2021/04/26 09:58:49;;;;;;;0.60;0.55;;;;;;;16.01;28.30;97937.32;1637679;86;21670;-68
2021/04/26 10:01:20;;;;;;;1.20;0.80;;;;;;;15.96;22.11;97933.59;1640132;87;21282;-68
2021/04/26 10:03:49;;;;;;;1.05;0.70;;;;;;;16.32;21.99;97924.08;1640197;87;21185;-66
2021/04/26 10:06:23;;;;;;;2.58;0.78;;;;;;;16.85;26.14;97926.94;1640192;86;21253;-68
2021/04/26 10:08:57;;;;;;;1.32;0.78;;;;;;;16.99;23.69;97917.44;1640050;87;21237;-67
2021/04/26 10:11:29;;;;;;;1.52;0.70;;;;;;;17.63;26.83;97914.39;1640047;86;21183;-67
2021/04/26 10:14:04;;;;;;;2.05;0.62;;;;;;;17.95;23.07;97917.81;1640007;86;21197;-67
2021/04/26 10:17:13;;;;;;;2.25;0.70;;;;;;;18.03;20.15;97906.34;1640254;87;21185;-69
2021/04/26 10:19:48;;;;;;;0.42;0.40;;;;;;;17.60;24.07;97902.95;1655378;85;21201;-67
2021/04/26 10:22:40;;;;;;;;;;;;;;;18.13;24.64;97907.34;1657848;86;21177;-66
2021/04/26 10:25:37;;;;;;;1.20;0.80;;;;;;;18.33;24.03;97900.38;1631675;86;20144;-70
2021/04/26 10:28:28;;;;;;;0.80;0.50;;;;;;;18.28;23.38;97894.91;1711891;83;21170;-69
2021/04/26 10:34:03;;;;;;;1.27;0.60;;;;;;;18.49;21.06;97888.23;1687471;84;21172;-69
2021/04/26 10:36:54;;;;;;;1.25;0.62;;;;;;;18.61;20.84;97888.53;1686223;85;21168;-69
2021/04/26 10:39:25;;;;;;;1.77;0.68;;;;;;;18.57;21.92;97883.35;1686272;85;21613;-69
2021/04/26 10:42:00;;;;;;;3.87;0.60;;;;;;;18.99;21.77;97880.48;1686344;85;21184;-69
2021/04/26 10:44:44;;;;;;;0.78;0.47;;;;;;;18.54;18.18;97882.44;1686394;85;21169;-70
2021/04/26 10:47:41;;;;;;;1.35;0.60;;;;;;;19.04;20.26;97858.34;1686303;85;21610;-69
2021/04/26 10:50:16;;;;;;;0.90;0.40;;;;;;;19.35;22.64;97870.46;1636675;88;22457;-70
2021/04/26 10:52:55;;;;;;;5.40;1.47;;;;;;;19.71;21.87;97864.86;1636659;86;21720;-69
2021/04/26 10:55:30;;;;;;;2.70;1.17;;;;;;;18.55;18.32;97859.89;1636910;86;21192;-68
2021/04/26 10:58:04;;;;;;;1.30;0.80;;;;;;;19.25;19.28;97858.20;1636984;88;21226;-69
2021/04/26 11:01:02;;;;;;;1.45;0.78;;;;;;;19.74;18.55;97855.73;1685924;81;21232;-68
2021/04/26 11:03:33;;;;;;;0.82;0.60;;;;;;;19.81;21.31;97851.27;1704201;82;21655;-75
2021/04/26 11:06:33;;;;;;;1.22;0.80;;;;;;;20.53;20.88;97853.81;1704472;82;21615;-70
2021/04/26 11:09:17;;;;;;;1.30;0.65;;;;;;;20.61;17.03;97839.57;1671499;84;21199;-70
2021/04/26 11:11:56;;;;;;;1.50;0.70;;;;;;;20.63;17.48;97844.93;1671822;84;21199;-69
2021/04/26 11:14:23;;;;;;;1.37;0.88;;;;;;;20.49;16.79;97832.82;1670672;84;21667;-69
2021/04/26 11:17:04;;;;;;;0.80;0.53;;;;;;;21.20;18.47;97822.95;1671855;84;21795;-70
2021/04/26 11:19:36;;;;;;;1.02;0.70;;;;;;;21.77;19.26;97829.83;1671660;85;21211;-69
2021/04/26 11:22:05;;;;;;;1.12;0.78;;;;;;;22.13;16.56;97825.16;1668861;84;21227;-70
2021/04/26 11:24:49;;;;;;;0.85;0.70;;;;;;;22.08;16.61;97825.50;1671523;84;21611;-70
2021/04/26 11:27:19;;;;;;;1.32;0.68;;;;;;;22.69;16.95;97827.58;1671800;84;21183;-67
2021/04/26 11:29:53;;;;;;;1.07;0.75;;;;;;;22.99;16.04;97818.34;1671546;86;21189;-67
2021/04/26 11:32:27;;;;;;;1.82;0.98;;;;;;;23.15;14.76;97819.55;1671747;84;21589;-70
2021/04/26 11:35:00;;;;;;;2.33;1.00;;;;;;;23.33;15.13;97812.84;1671482;84;21199;-70
2021/04/26 11:37:36;;;;;;;1.17;0.85;;;;;;;22.96;14.79;97809.50;1671845;84;21273;-69
2021/04/26 11:40:22;;;;;;;1.40;0.82;;;;;;;23.08;15.24;97804.24;1671210;84;21247;-70
2021/04/26 11:42:50;;;;;;;1.72;0.90;;;;;;;22.80;16.68;97807.48;1671319;84;21248;-70
2021/04/26 11:45:21;;;;;;;1.15;0.70;;;;;;;23.51;17.61;97803.52;1671657;84;21557;-71
2021/04/26 11:47:50;;;;;;;0.95;0.72;;;;;;;23.89;15.68;97804.39;1671620;85;21239;-67
2021/04/26 11:50:18;;;;;;;1.85;0.93;;;;;;;23.37;15.86;97793.33;1671420;84;21282;-68
2021/04/26 11:52:46;;;;;;;2.02;0.68;;;;;;;23.64;16.08;97791.37;1671435;84;22274;-69
2021/04/26 11:55:19;;;;;;;0.93;0.70;;;;;;;23.97;18.14;97788.13;1671668;84;21183;-69
2021/04/26 11:57:56;;;;;;;1.62;0.93;;;;;;;23.55;13.80;97786.12;1671896;85;21259;-69
2021/04/26 12:00:30;;;;;;;3.35;0.70;;;;;;;23.84;16.95;97787.06;1672064;86;21187;-70
2021/04/26 12:03:11;;;;;;;1.12;0.80;;;;;;;24.70;16.44;97778.78;1671739;84;21215;-74
2021/04/26 12:05:42;;;;;;;0.78;0.62;;;;;;;24.92;12.96;97772.59;1671802;84;21187;-70
2021/04/26 12:08:11;;;;;;;0.70;0.70;;;;;;;24.81;15.05;97769.44;1690380;84;21219;-70
2021/04/26 12:10:43;;;;;;;1.30;0.80;;;;;;;24.63;12.75;97767.50;1705648;83;21176;-71
2021/04/26 12:13:12;;;;;;;1.25;0.80;;;;;;;24.54;12.96;97767.06;1705625;83;21165;-70
2021/04/26 12:15:39;;;;;;;2.22;1.12;;;;;;;24.65;12.79;97755.59;1705590;83;21693;-69
2021/04/26 12:18:08;;;;;;;1.05;0.82;;;;;;;24.13;13.67;97754.78;1705772;83;21606;-70